createdAt,value
2016-09-24T00:00:09.349Z,11.59
2016-09-24T00:01:10.326Z,11.69
2016-09-24T00:02:09.281Z,11.69
2016-09-24T00:03:09.441Z,11.68
2016-09-24T00:04:09.876Z,11.66
2016-09-24T00:05:08.918Z,11.68
2016-09-24T00:06:09.546Z,11.73
2016-09-24T00:07:09.812Z,11.73
2016-09-24T00:08:09.515Z,11.72
2016-09-24T00:09:09.409Z,11.7
2016-09-24T00:10:09.404Z,11.8
2016-09-24T00:11:09.849Z,11.75
2016-09-24T00:12:10.284Z,11.78
2016-09-24T00:13:09.753Z,11.73
2016-09-24T00:14:09.447Z,11.83
2016-09-24T00:15:09.724Z,11.81
2016-09-24T00:16:10.541Z,11.81
2016-09-24T00:17:09.740Z,11.8
2016-09-24T00:18:10.117Z,11.77
2016-09-24T00:19:09.612Z,11.72
2016-09-24T00:20:09.600Z,11.72
2016-09-24T00:21:09.759Z,11.68
2016-09-24T00:22:09.077Z,11.7
2016-09-24T00:23:09.666Z,11.75
2016-09-24T00:24:10.088Z,11.81
2016-09-24T00:25:10.311Z,11.73
2016-09-24T00:26:10.303Z,11.7
2016-09-24T00:27:09.566Z,11.73
2016-09-24T00:28:08.966Z,11.77
2016-09-24T00:29:09.653Z,11.77
2016-09-24T00:30:09.050Z,11.66
2016-09-24T00:31:09.404Z,11.59
2016-09-24T00:32:09.239Z,11.63
2016-09-24T00:33:11.534Z,11.52
2016-09-24T00:34:09.363Z,11.47
2016-09-24T00:35:09.892Z,11.48
2016-09-24T00:36:09.823Z,11.44
2016-09-24T00:37:09.813Z,11.45
2016-09-24T00:38:10.454Z,11.37
2016-09-24T00:39:09.524Z,11.43
2016-09-24T00:40:09.454Z,11.36
2016-09-24T00:41:09.437Z,11.29
2016-09-24T00:42:10.724Z,11.29
2016-09-24T00:43:08.999Z,11.22
2016-09-24T00:44:09.279Z,11.18
2016-09-24T00:45:10.387Z,11.27
2016-09-24T00:46:09.529Z,11.23
2016-09-24T00:47:09.613Z,11.29
2016-09-24T00:48:10.196Z,11.18
2016-09-24T00:49:10.457Z,11.17
2016-09-24T00:50:09.860Z,11.18
2016-09-24T00:51:09.826Z,11.12
2016-09-24T00:52:10.164Z,11.12
2016-09-24T00:53:09.879Z,11.15
2016-09-24T00:54:10.204Z,11.08
2016-09-24T00:55:09.411Z,10.99
2016-09-24T00:56:10.933Z,10.97
2016-09-24T00:57:09.846Z,10.96
2016-09-24T00:58:09.680Z,10.93
2016-09-24T00:59:10.529Z,10.99
2016-09-24T01:00:10.254Z,10.9
2016-09-24T01:01:10.535Z,11.02
2016-09-24T01:02:09.718Z,10.99
2016-09-24T01:03:10.061Z,10.86
2016-09-24T01:04:10.734Z,10.87
2016-09-24T01:05:09.623Z,10.79
2016-09-24T01:06:09.936Z,10.79
2016-09-24T01:07:09.900Z,10.81
2016-09-24T01:08:10.334Z,10.89
2016-09-24T01:09:10.061Z,10.93
2016-09-24T01:10:10.437Z,10.92
2016-09-24T01:11:10.250Z,10.93
2016-09-24T01:12:10.207Z,11
2016-09-24T01:13:10.593Z,10.99
2016-09-24T01:14:10.686Z,10.94
2016-09-24T01:15:09.996Z,10.84
2016-09-24T01:16:10.566Z,10.86
2016-09-24T01:17:10.488Z,10.86
2016-09-24T01:18:10.758Z,10.93
2016-09-24T01:19:12.076Z,10.89
2016-09-24T01:20:10.700Z,10.92
2016-09-24T01:21:10.799Z,10.92
2016-09-24T01:22:09.917Z,10.93
2016-09-24T01:23:10.478Z,10.81
2016-09-24T01:24:10.671Z,10.97
2016-09-24T01:25:11.191Z,10.93
2016-09-24T01:26:10.277Z,10.84
2016-09-24T01:27:10.403Z,10.9
2016-09-24T01:28:10.765Z,10.84
2016-09-24T01:29:11.182Z,10.86
2016-09-24T01:30:11.251Z,10.86
2016-09-24T01:31:10.615Z,10.82
2016-09-24T01:32:11.127Z,10.78
2016-09-24T01:33:10.580Z,10.79
2016-09-24T01:34:10.723Z,10.76
2016-09-24T01:35:11.951Z,10.75
2016-09-24T01:36:10.595Z,10.61
2016-09-24T01:37:12.006Z,10.67
2016-09-24T01:38:11.152Z,10.64
2016-09-24T01:39:11.499Z,10.69
2016-09-24T01:40:11.080Z,10.68
2016-09-24T01:41:10.376Z,10.71
2016-09-24T01:42:10.744Z,10.69
2016-09-24T01:43:11.493Z,10.71
2016-09-24T01:44:11.751Z,10.64
2016-09-24T01:45:11.483Z,10.68
2016-09-24T01:46:11.337Z,10.59
2016-09-24T01:47:10.890Z,10.72
2016-09-24T01:48:10.998Z,10.72
2016-09-24T01:49:11.502Z,10.61
2016-09-24T01:50:10.571Z,10.6
2016-09-24T01:51:10.768Z,10.59
2016-09-24T01:52:11.261Z,10.51
2016-09-24T01:53:10.151Z,10.53
2016-09-24T01:54:10.745Z,10.49
2016-09-24T01:55:11.357Z,10.49
2016-09-24T01:56:10.738Z,10.49
2016-09-24T01:57:11.307Z,10.44
2016-09-24T01:58:11.308Z,10.4
2016-09-24T01:59:11.431Z,10.35
2016-09-24T02:00:11.740Z,10.4
2016-09-24T02:01:12.010Z,10.31
2016-09-24T02:02:11.014Z,10.3
2016-09-24T02:03:12.239Z,10.33
2016-09-24T02:04:10.763Z,10.26
2016-09-24T02:05:11.489Z,10.2
2016-09-24T02:06:12.727Z,10.26
2016-09-24T02:07:11.428Z,10.3
2016-09-24T02:08:11.242Z,10.22
2016-09-24T02:09:11.774Z,10.25
2016-09-24T02:10:11.443Z,10.23
2016-09-24T02:11:10.909Z,10.22
2016-09-24T02:12:12.283Z,10.26
2016-09-24T02:13:11.540Z,10.2
2016-09-24T02:14:11.862Z,10.31
2016-09-24T02:15:11.664Z,10.35
2016-09-24T02:16:11.745Z,10.25
2016-09-24T02:17:11.895Z,10.31
2016-09-24T02:18:11.407Z,10.28
2016-09-24T02:19:11.850Z,10.34
2016-09-24T02:20:11.501Z,10.37
2016-09-24T02:21:12.037Z,10.31
2016-09-24T02:22:11.718Z,10.34
2016-09-24T02:23:12.464Z,10.31
2016-09-24T02:24:12.008Z,10.26
2016-09-24T02:25:12.858Z,10.22
2016-09-24T02:26:13.321Z,10.31
2016-09-24T02:27:11.656Z,10.28
2016-09-24T02:28:11.576Z,10.17
2016-09-24T02:29:12.143Z,10.22
2016-09-24T02:30:12.103Z,10.22
2016-09-24T02:31:12.726Z,10.19
2016-09-24T02:32:12.099Z,10.09
2016-09-24T02:33:11.922Z,10.09
2016-09-24T02:34:12.880Z,10.15
2016-09-24T02:35:12.694Z,10.22
2016-09-24T02:36:11.661Z,10.2
2016-09-24T02:37:12.798Z,10.19
2016-09-24T02:38:11.692Z,10.23
2016-09-24T02:39:13.449Z,10.25
2016-09-24T02:40:11.992Z,10.23
2016-09-24T02:41:12.455Z,10.31
2016-09-24T02:42:11.712Z,10.22
2016-09-24T02:43:12.430Z,10.25
2016-09-24T02:44:12.407Z,10.31
2016-09-24T02:45:12.152Z,10.28
2016-09-24T02:46:12.009Z,10.3
2016-09-24T02:47:11.630Z,10.22
2016-09-24T02:48:11.832Z,10.3
2016-09-24T02:49:12.801Z,10.25
2016-09-24T02:50:13.074Z,10.23
2016-09-24T02:51:12.036Z,10.28
2016-09-24T02:52:13.338Z,10.23
2016-09-24T02:53:14.464Z,10.22
2016-09-24T02:54:12.129Z,10.26
2016-09-24T02:55:13.062Z,10.19
2016-09-24T02:56:12.788Z,10.09
2016-09-24T02:57:11.858Z,10.09
2016-09-24T02:58:12.310Z,10.05
2016-09-24T02:59:12.371Z,10.13
2016-09-24T03:00:12.679Z,10.04
2016-09-24T03:01:13.485Z,10.04
2016-09-24T03:02:12.634Z,10.07
2016-09-24T03:03:12.598Z,10.02
2016-09-24T03:04:13.313Z,10.02
2016-09-24T03:05:12.902Z,9.95
2016-09-24T03:06:12.926Z,9.89
2016-09-24T03:07:13.253Z,9.86
2016-09-24T03:08:13.024Z,9.94
2016-09-24T03:09:12.133Z,9.89
2016-09-24T03:10:12.066Z,9.91
2016-09-24T03:11:12.152Z,9.89
2016-09-24T03:12:12.969Z,9.83
2016-09-24T03:13:12.935Z,9.95
2016-09-24T03:14:12.609Z,9.83
2016-09-24T03:15:14.139Z,9.87
2016-09-24T03:16:13.106Z,9.82
2016-09-24T03:17:12.853Z,9.86
2016-09-24T03:18:13.111Z,9.84
2016-09-24T03:19:12.135Z,9.89
2016-09-24T03:20:12.809Z,9.89
2016-09-24T03:21:13.070Z,9.86
2016-09-24T03:22:13.026Z,9.83
2016-09-24T03:23:13.609Z,9.82
2016-09-24T03:24:12.598Z,9.79
2016-09-24T03:25:12.788Z,9.83
2016-09-24T03:26:13.912Z,9.82
2016-09-24T03:27:12.997Z,9.79
2016-09-24T03:28:13.398Z,9.8
2016-09-24T03:29:13.663Z,9.89
2016-09-24T03:30:14.639Z,9.79
2016-09-24T03:31:12.757Z,9.77
2016-09-24T03:32:12.679Z,9.74
2016-09-24T03:33:13.334Z,9.79
2016-09-24T03:34:13.487Z,9.8
2016-09-24T03:35:13.207Z,9.83
2016-09-24T03:36:13.261Z,9.82
2016-09-24T03:37:13.534Z,9.77
2016-09-24T03:38:13.416Z,9.74
2016-09-24T03:39:12.875Z,9.8
2016-09-24T03:40:13.366Z,9.84
2016-09-24T03:41:12.432Z,9.89
2016-09-24T03:42:13.797Z,9.84
2016-09-24T03:43:13.132Z,9.87
2016-09-24T03:44:12.976Z,9.86
2016-09-24T03:45:13.094Z,9.94
2016-09-24T03:46:14.153Z,9.92
2016-09-24T03:47:13.071Z,9.92
2016-09-24T03:48:13.886Z,9.89
2016-09-24T03:49:13.328Z,9.91
2016-09-24T03:50:14.547Z,9.91
2016-09-24T03:51:13.296Z,9.87
2016-09-24T03:52:13.320Z,9.92
2016-09-24T03:53:13.161Z,9.8
2016-09-24T03:54:14.403Z,9.87
2016-09-24T03:55:13.507Z,9.86
2016-09-24T03:56:13.207Z,9.83
2016-09-24T03:57:14.203Z,9.86
2016-09-24T03:58:13.503Z,9.87
2016-09-24T03:59:13.877Z,9.86
2016-09-24T04:00:14.441Z,9.76
2016-09-24T04:01:13.658Z,9.82
2016-09-24T04:02:14.440Z,9.82
2016-09-24T04:03:14.120Z,9.77
2016-09-24T04:04:14.155Z,9.82
2016-09-24T04:05:14.194Z,9.77
2016-09-24T04:06:14.255Z,9.83
2016-09-24T04:07:13.642Z,9.82
2016-09-24T04:08:13.489Z,9.8
2016-09-24T04:09:15.410Z,9.84
2016-09-24T04:10:14.667Z,9.84
2016-09-24T04:11:13.971Z,9.77
2016-09-24T04:12:14.502Z,9.8
2016-09-24T04:13:14.485Z,9.74
2016-09-24T04:14:13.692Z,9.8
2016-09-24T04:15:13.464Z,9.82
2016-09-24T04:16:14.322Z,9.79
2016-09-24T04:17:14.580Z,9.83
2016-09-24T04:18:14.763Z,9.8
2016-09-24T04:19:14.023Z,9.77
2016-09-24T04:20:13.517Z,9.79
2016-09-24T04:21:13.241Z,9.79
2016-09-24T04:22:14.812Z,9.84
2016-09-24T04:23:15.008Z,9.82
2016-09-24T04:24:14.590Z,9.72
2016-09-24T04:25:13.399Z,9.69
2016-09-24T04:26:14.389Z,9.68
2016-09-24T04:27:14.511Z,9.66
2016-09-24T04:28:14.561Z,9.64
2016-09-24T04:29:14.697Z,9.65
2016-09-24T04:30:14.099Z,9.59
2016-09-24T04:31:14.136Z,9.61
2016-09-24T04:32:13.708Z,9.56
2016-09-24T04:33:14.303Z,9.58
2016-09-24T04:34:14.652Z,9.59
2016-09-24T04:35:14.158Z,9.56
2016-09-24T04:36:13.768Z,9.56
2016-09-24T04:37:14.959Z,9.54
2016-09-24T04:38:14.457Z,9.51
2016-09-24T04:39:14.381Z,9.55
2016-09-24T04:40:13.767Z,9.48
2016-09-24T04:41:13.633Z,9.5
2016-09-24T04:42:13.269Z,9.48
2016-09-24T04:43:14.570Z,9.55
2016-09-24T04:44:14.752Z,9.55
2016-09-24T04:45:15.292Z,9.59
2016-09-24T04:46:15.541Z,9.56
2016-09-24T04:47:15.349Z,9.51
2016-09-24T04:48:14.263Z,9.59
2016-09-24T04:49:14.898Z,9.65
2016-09-24T04:50:14.127Z,9.59
2016-09-24T04:51:14.394Z,9.58
2016-09-24T04:52:15.675Z,9.55
2016-09-24T04:53:15.141Z,9.54
2016-09-24T04:54:14.674Z,9.58
2016-09-24T04:55:14.465Z,9.59
2016-09-24T04:56:15.183Z,9.58
2016-09-24T04:57:15.268Z,9.56
2016-09-24T04:58:14.979Z,9.59
2016-09-24T04:59:14.827Z,9.58
2016-09-24T05:00:15.213Z,9.58
2016-09-24T05:01:14.619Z,9.66
2016-09-24T05:02:14.749Z,9.61
2016-09-24T05:03:14.998Z,9.68
2016-09-24T05:04:14.839Z,9.64
2016-09-24T05:05:15.405Z,9.64
2016-09-24T05:06:14.701Z,9.65
2016-09-24T05:07:15.619Z,9.69
2016-09-24T05:08:15.306Z,9.69
2016-09-24T05:09:14.482Z,9.68
2016-09-24T05:10:15.447Z,9.62
2016-09-24T05:11:14.621Z,9.62
2016-09-24T05:12:14.681Z,9.65
2016-09-24T05:13:14.789Z,9.72
2016-09-24T05:14:15.138Z,9.61
2016-09-24T05:15:15.550Z,9.72
2016-09-24T05:16:15.721Z,9.66
2016-09-24T05:17:14.914Z,9.66
2016-09-24T05:18:15.218Z,9.73
2016-09-24T05:19:15.415Z,9.76
2016-09-24T05:20:15.405Z,9.68
2016-09-24T05:21:15.727Z,9.72
2016-09-24T05:22:14.701Z,9.69
2016-09-24T05:23:14.948Z,9.69
2016-09-24T05:24:15.903Z,9.86
2016-09-24T05:25:14.534Z,9.8
2016-09-24T05:26:16.203Z,9.84
2016-09-24T05:27:16.327Z,9.74
2016-09-24T05:28:14.903Z,9.83
2016-09-24T05:29:14.524Z,9.83
2016-09-24T05:30:14.868Z,9.79
2016-09-24T05:31:15.082Z,9.87
2016-09-24T05:32:16.244Z,9.91
2016-09-24T05:33:15.329Z,9.89
2016-09-24T05:34:15.942Z,9.84
2016-09-24T05:35:15.570Z,9.94
2016-09-24T05:36:15.019Z,9.87
2016-09-24T05:37:15.004Z,9.84
2016-09-24T05:38:15.086Z,9.94
2016-09-24T05:39:15.442Z,9.89
2016-09-24T05:40:16.078Z,9.83
2016-09-24T05:41:14.790Z,9.89
2016-09-24T05:42:17.427Z,9.94
2016-09-24T05:43:15.170Z,9.86
2016-09-24T05:44:16.169Z,9.94
2016-09-24T05:45:16.725Z,9.97
2016-09-24T05:46:15.631Z,9.98
2016-09-24T05:47:15.162Z,9.98
2016-09-24T05:48:15.706Z,9.97
2016-09-24T05:49:15.096Z,9.94
2016-09-24T05:50:16.087Z,10.01
2016-09-24T05:51:15.439Z,10.04
2016-09-24T05:52:15.460Z,9.98
2016-09-24T05:53:15.782Z,10.05
2016-09-24T05:54:15.648Z,10.13
2016-09-24T05:55:16.360Z,10.05
2016-09-24T05:56:15.675Z,10.04
2016-09-24T05:57:16.369Z,10.1
2016-09-24T05:58:16.265Z,10.09
2016-09-24T05:59:16.370Z,10.07
2016-09-24T06:00:15.492Z,10.12
2016-09-24T06:01:16.545Z,10.2
2016-09-24T06:02:15.335Z,10.28
2016-09-24T06:03:15.160Z,10.22
2016-09-24T06:04:15.850Z,10.25
2016-09-24T06:05:18.132Z,10.23
2016-09-24T06:06:15.691Z,10.2
2016-09-24T06:07:16.552Z,10.26
2016-09-24T06:08:15.336Z,10.26
2016-09-24T06:09:16.072Z,10.26
2016-09-24T06:10:16.011Z,10.25
2016-09-24T06:11:15.593Z,10.25
2016-09-24T06:12:16.625Z,10.26
2016-09-24T06:13:16.629Z,10.3
2016-09-24T06:14:15.763Z,10.35
2016-09-24T06:15:16.516Z,10.4
2016-09-24T06:16:16.398Z,10.33
2016-09-24T06:17:16.182Z,10.34
2016-09-24T06:18:16.576Z,10.35
2016-09-24T06:19:16.168Z,10.46
2016-09-24T06:20:15.698Z,10.48
2016-09-24T06:21:17.203Z,10.41
2016-09-24T06:22:16.688Z,10.37
2016-09-24T06:23:16.597Z,10.44
2016-09-24T06:24:16.052Z,10.41
2016-09-24T06:25:16.388Z,10.37
2016-09-24T06:26:16.950Z,10.37
2016-09-24T06:27:16.444Z,10.37
2016-09-24T06:28:15.855Z,10.46
2016-09-24T06:29:16.261Z,10.33
2016-09-24T06:30:16.243Z,10.34
2016-09-24T06:31:17.169Z,10.35
2016-09-24T06:32:16.963Z,10.35
2016-09-24T06:33:17.013Z,10.37
2016-09-24T06:34:17.226Z,10.4
2016-09-24T06:35:16.923Z,10.46
2016-09-24T06:36:15.871Z,10.42
2016-09-24T06:37:17.288Z,10.53
2016-09-24T06:38:16.521Z,10.53
2016-09-24T06:39:17.330Z,10.59
2016-09-24T06:40:16.544Z,10.63
2016-09-24T06:41:16.784Z,10.56
2016-09-24T06:42:16.554Z,10.69
2016-09-24T06:43:16.344Z,10.71
2016-09-24T06:44:18.149Z,10.64
2016-09-24T06:45:17.209Z,10.69
2016-09-24T06:46:17.128Z,10.67
2016-09-24T06:47:17.097Z,10.63
2016-09-24T06:48:16.964Z,10.76
2016-09-24T06:49:16.877Z,10.86
2016-09-24T06:50:16.848Z,10.74
2016-09-24T06:51:17.686Z,10.71
2016-09-24T06:52:17.844Z,10.79
2016-09-24T06:53:15.909Z,10.86
2016-09-24T06:54:17.486Z,10.82
2016-09-24T06:55:17.752Z,10.82
2016-09-24T06:56:18.063Z,10.87
2016-09-24T06:57:16.991Z,10.92
2016-09-24T06:58:17.910Z,11.1
2016-09-24T06:59:17.135Z,11.05
2016-09-24T07:00:17.210Z,11.04
2016-09-24T07:01:17.096Z,11.04
2016-09-24T07:02:17.177Z,11.05
2016-09-24T07:03:17.268Z,11.08
2016-09-24T07:04:17.027Z,11.04
2016-09-24T07:05:17.383Z,11.14
2016-09-24T07:06:17.791Z,11.17
2016-09-24T07:07:17.768Z,11.14
2016-09-24T07:08:17.599Z,11.22
2016-09-24T07:09:17.971Z,11.17
2016-09-24T07:10:17.735Z,11.1
2016-09-24T07:11:17.363Z,11.1
2016-09-24T07:12:17.713Z,11.07
2016-09-24T07:13:16.910Z,11.08
2016-09-24T07:14:17.530Z,11.05
2016-09-24T07:15:17.628Z,11.12
2016-09-24T07:16:17.665Z,11.11
2016-09-24T07:17:17.996Z,11.1
2016-09-24T07:18:19.582Z,10.99
2016-09-24T07:19:17.659Z,11.05
2016-09-24T07:20:19.071Z,10.96
2016-09-24T07:21:18.400Z,11.12
2016-09-24T07:22:18.414Z,11.05
2016-09-24T07:23:18.195Z,11.07
2016-09-24T07:24:17.240Z,11.12
2016-09-24T07:25:18.059Z,11.02
2016-09-24T07:26:17.618Z,11.14
2016-09-24T07:27:17.552Z,11.22
2016-09-24T07:28:17.680Z,11.32
2016-09-24T07:29:17.052Z,11.5
2016-09-24T07:30:17.933Z,11.6
2016-09-24T07:31:17.233Z,11.51
2016-09-24T07:32:18.802Z,11.54
2016-09-24T07:33:17.307Z,11.65
2016-09-24T07:34:18.983Z,11.73
2016-09-24T07:35:17.856Z,11.91
2016-09-24T07:36:17.611Z,12.02
2016-09-24T07:37:17.321Z,12.03
2016-09-24T07:38:17.725Z,12.09
2016-09-24T07:39:19.715Z,12.04
2016-09-24T07:40:17.855Z,12.28
2016-09-24T07:41:17.340Z,12.43
2016-09-24T07:42:16.855Z,12.45
2016-09-24T07:43:17.211Z,12.7
2016-09-24T07:44:18.410Z,12.86
2016-09-24T07:45:17.898Z,13.05
2016-09-24T07:46:18.012Z,12.95
2016-09-24T07:47:18.732Z,13.25
2016-09-24T07:48:18.767Z,13.41
2016-09-24T07:49:18.110Z,13.39
2016-09-24T07:50:17.868Z,13.65
2016-09-24T07:51:18.171Z,13.81
2016-09-24T07:52:19.336Z,14.05
2016-09-24T07:53:19.648Z,13.81
2016-09-24T07:54:17.553Z,13.87
2016-09-24T07:55:18.333Z,14.18
2016-09-24T07:56:19.814Z,14.11
2016-09-24T07:57:18.470Z,13.99
2016-09-24T07:58:17.554Z,13.89
2016-09-24T07:59:19.112Z,13.78
2016-09-24T08:00:19.183Z,13.83
2016-09-24T08:01:19.212Z,13.57
2016-09-24T08:02:17.916Z,13.5
2016-09-24T08:03:18.051Z,13.37
2016-09-24T08:04:19.568Z,13.44
2016-09-24T08:05:18.449Z,13.3
2016-09-24T08:06:17.999Z,13
2016-09-24T08:07:19.851Z,13.01
2016-09-24T08:08:19.177Z,13.35
2016-09-24T08:09:18.427Z,13.49
2016-09-24T08:10:18.292Z,13.25
2016-09-24T08:11:18.380Z,13.42
2016-09-24T08:12:18.143Z,13.67
2016-09-24T08:13:18.969Z,13.46
2016-09-24T08:14:19.113Z,13.65
2016-09-24T08:15:19.417Z,13.79
2016-09-24T08:16:18.484Z,13.87
2016-09-24T08:17:18.528Z,14
2016-09-24T08:18:18.325Z,14.12
2016-09-24T08:19:17.978Z,14.3
2016-09-24T08:20:18.545Z,14.32
2016-09-24T08:21:18.404Z,14.59
2016-09-24T08:22:19.073Z,14.53
2016-09-24T08:23:19.600Z,14.51
2016-09-24T08:24:18.588Z,14.44
2016-09-24T08:25:19.421Z,14.58
2016-09-24T08:26:19.318Z,14.48
2016-09-24T08:27:18.212Z,14.82
2016-09-24T08:28:18.421Z,14.92
2016-09-24T08:29:18.845Z,15.15
2016-09-24T08:30:19.402Z,14.88
2016-09-24T08:31:19.324Z,14.85
2016-09-24T08:32:18.378Z,15.22
2016-09-24T08:33:19.863Z,15.29
2016-09-24T08:34:19.777Z,15.33
2016-09-24T08:35:18.510Z,15.49
2016-09-24T08:36:19.693Z,15.51
2016-09-24T08:37:19.066Z,15.54
2016-09-24T08:38:19.425Z,15.54
2016-09-24T08:39:19.709Z,15.77
2016-09-24T08:40:20.643Z,15.58
2016-09-24T08:41:18.789Z,15.54
2016-09-24T08:42:19.461Z,15.52
2016-09-24T08:43:19.420Z,15.31
2016-09-24T08:44:19.789Z,15.46
2016-09-24T08:45:20.713Z,15.9
2016-09-24T08:46:19.309Z,15.8
2016-09-24T08:47:19.338Z,15.92
2016-09-24T08:48:19.325Z,15.92
2016-09-24T08:49:19.321Z,16.01
2016-09-24T08:50:19.922Z,16.04
2016-09-24T08:51:19.542Z,15.75
2016-09-24T08:52:19.910Z,15.42
2016-09-24T08:53:18.873Z,15.73
2016-09-24T08:54:19.642Z,15.68
2016-09-24T08:55:19.869Z,15.47
2016-09-24T08:56:20.291Z,15.24
2016-09-24T08:57:19.929Z,15.14
2016-09-24T08:58:20.007Z,15.54
2016-09-24T08:59:20.661Z,15.67
2016-09-24T09:00:19.479Z,16.01
2016-09-24T09:01:19.671Z,16.23
2016-09-24T09:02:19.864Z,15.98
2016-09-24T09:03:19.713Z,15.75
2016-09-24T09:04:19.122Z,16.12
2016-09-24T09:05:19.733Z,16.64
2016-09-24T09:06:19.299Z,16.43
2016-09-24T09:07:19.614Z,16.93
2016-09-24T09:08:19.346Z,16.83
2016-09-24T09:09:19.986Z,16.49
2016-09-24T09:10:19.911Z,16.46
2016-09-24T09:11:19.700Z,16.66
2016-09-24T09:12:20.665Z,16.9
2016-09-24T09:13:20.379Z,17.39
2016-09-24T09:14:19.834Z,16.97
2016-09-24T09:15:20.588Z,16.97
2016-09-24T09:16:19.905Z,16.56
2016-09-24T09:17:20.947Z,16.53
2016-09-24T09:18:20.259Z,16.66
2016-09-24T09:19:20.465Z,17.26
2016-09-24T09:20:21.050Z,17.67
2016-09-24T09:21:19.903Z,17.54
2016-09-24T09:22:19.356Z,17.65
2016-09-24T09:23:21.218Z,17.68
2016-09-24T09:24:20.277Z,17.72
2016-09-24T09:25:20.331Z,17.63
2016-09-24T09:26:20.146Z,17.49
2016-09-24T09:27:19.972Z,17.56
2016-09-24T09:28:20.472Z,17.74
2016-09-24T09:29:20.503Z,17.8
2016-09-24T09:30:20.322Z,17.64
2016-09-24T09:31:19.958Z,17.36
2016-09-24T09:32:20.701Z,17.29
2016-09-24T09:33:20.795Z,17.86
2016-09-24T09:34:20.350Z,18.28
2016-09-24T09:35:20.619Z,18.56
2016-09-24T09:36:19.644Z,18.71
2016-09-24T09:37:20.187Z,19.3
2016-09-24T09:38:20.748Z,18.66
2016-09-24T09:39:20.196Z,18.52
2016-09-24T09:40:20.139Z,18.92
2016-09-24T09:41:20.029Z,18.43
2016-09-24T09:42:20.855Z,18.83
2016-09-24T09:43:20.995Z,19.19
2016-09-24T09:44:19.980Z,19.39
2016-09-24T09:45:21.113Z,19.49
2016-09-24T09:46:22.433Z,19.14
2016-09-24T09:47:20.184Z,18.59
2016-09-24T09:48:21.006Z,18.78
2016-09-24T09:49:20.940Z,19.18
2016-09-24T09:50:21.036Z,19.44
2016-09-24T09:51:21.456Z,19.34
2016-09-24T09:52:20.270Z,19.37
2016-09-24T09:53:20.467Z,19.07
2016-09-24T09:54:22.579Z,18.9
2016-09-24T09:55:20.414Z,19.33
2016-09-24T09:56:20.629Z,19.22
2016-09-24T09:57:20.513Z,19.31
2016-09-24T09:58:20.628Z,19.24
2016-09-24T09:59:21.003Z,19.15
2016-09-24T10:00:21.492Z,19.66
2016-09-24T10:01:21.108Z,20.03
2016-09-24T10:02:20.968Z,20.52
2016-09-24T10:03:20.944Z,20.43
2016-09-24T10:04:20.851Z,20.36
2016-09-24T10:05:21.411Z,20.36
2016-09-24T10:06:22.547Z,20.67
2016-09-24T10:07:21.508Z,20.56
2016-09-24T10:08:21.784Z,20.88
2016-09-24T10:09:20.532Z,20.99
2016-09-24T10:10:21.508Z,21.22
2016-09-24T10:11:20.647Z,20.51
2016-09-24T10:12:21.201Z,20.26
2016-09-24T10:13:22.733Z,20.67
2016-09-24T10:14:21.416Z,21.33
2016-09-24T10:15:22.064Z,21.52
2016-09-24T10:16:21.259Z,21.57
2016-09-24T10:17:21.557Z,21.69
2016-09-24T10:18:22.127Z,21.64
2016-09-24T10:19:21.148Z,21
2016-09-24T10:20:21.334Z,20.9
2016-09-24T10:21:21.503Z,20.72
2016-09-24T10:22:22.000Z,20.97
2016-09-24T10:23:22.966Z,21.14
2016-09-24T10:24:22.539Z,21.24
2016-09-24T10:25:21.677Z,20.24
2016-09-24T10:26:22.435Z,20.37
2016-09-24T10:27:21.847Z,20.39
2016-09-24T10:28:21.618Z,20.21
2016-09-24T10:29:22.384Z,20.37
2016-09-24T10:30:21.361Z,20.93
2016-09-24T10:31:21.859Z,21.36
2016-09-24T10:32:21.885Z,21.73
2016-09-24T10:33:21.768Z,22.26
2016-09-24T10:34:22.691Z,22.18
2016-09-24T10:35:22.045Z,22.53
2016-09-24T10:36:22.216Z,22.57
2016-09-24T10:37:22.260Z,22.57
2016-09-24T10:38:21.745Z,22.07
2016-09-24T10:39:21.413Z,21.85
2016-09-24T10:40:22.021Z,21.66
2016-09-24T10:41:22.086Z,21.37
2016-09-24T10:42:22.502Z,21.2
2016-09-24T10:43:22.077Z,21.29
2016-09-24T10:44:22.479Z,21.54
2016-09-24T10:45:21.721Z,22.18
2016-09-24T10:46:22.704Z,22.33
2016-09-24T10:47:22.667Z,21.89
2016-09-24T10:48:22.533Z,21.85
2016-09-24T10:49:23.087Z,21.66
2016-09-24T10:50:22.611Z,21.58
2016-09-24T10:51:22.358Z,21.83
2016-09-24T10:52:22.461Z,22.23
2016-09-24T10:53:22.802Z,22.54
2016-09-24T10:54:22.609Z,22.51
2016-09-24T10:55:22.658Z,22.08
2016-09-24T10:56:22.203Z,21.93
2016-09-24T10:57:22.672Z,22.23
2016-09-24T10:58:22.367Z,22.04
2016-09-24T10:59:22.690Z,22.22
2016-09-24T11:00:23.360Z,22.59
2016-09-24T11:01:21.835Z,22.73
2016-09-24T11:02:22.735Z,22.99
2016-09-24T11:03:21.903Z,23.2
2016-09-24T11:04:22.168Z,23.23
2016-09-24T11:05:23.326Z,23.36
2016-09-24T11:06:23.697Z,23.1
2016-09-24T11:07:22.634Z,23.27
2016-09-24T11:08:22.709Z,23.58
2016-09-24T11:09:22.307Z,23.47
2016-09-24T11:10:23.363Z,23.08
2016-09-24T11:11:22.651Z,23.23
2016-09-24T11:12:23.445Z,23.27
2016-09-24T11:13:22.522Z,23.83
2016-09-24T11:14:22.402Z,23.55
2016-09-24T11:15:22.782Z,22.87
2016-09-24T11:16:22.599Z,23.47
2016-09-24T11:17:22.699Z,23.88
2016-09-24T11:18:22.792Z,24.03
2016-09-24T11:19:22.900Z,23.87
2016-09-24T11:20:23.237Z,23.51
2016-09-24T11:21:23.321Z,23.8
2016-09-24T11:22:23.172Z,23.98
2016-09-24T11:23:23.412Z,24.35
2016-09-24T11:24:22.517Z,24.69
2016-09-24T11:25:23.137Z,25.29
2016-09-24T11:26:24.336Z,24.84
2016-09-24T11:27:23.502Z,24.39
2016-09-24T11:28:24.421Z,24.48
2016-09-24T11:29:24.591Z,24.02
2016-09-24T11:30:23.125Z,24.05
2016-09-24T11:31:23.842Z,23.69
2016-09-24T11:32:23.240Z,23.73
2016-09-24T11:33:23.634Z,23.48
2016-09-24T11:34:24.569Z,23.95
2016-09-24T11:35:23.335Z,24.53
2016-09-24T11:36:25.213Z,24.78
2016-09-24T11:37:24.132Z,25.22
2016-09-24T11:38:24.767Z,24.92
2016-09-24T11:39:24.750Z,24.8
2016-09-24T11:40:24.301Z,24.63
2016-09-24T11:41:24.952Z,24.45
2016-09-24T11:42:24.678Z,24.77
2016-09-24T11:43:24.065Z,24.55
2016-09-24T11:44:24.116Z,24.45
2016-09-24T11:45:24.454Z,24.24
2016-09-24T11:46:24.061Z,23.93
2016-09-24T11:47:24.446Z,23.54
2016-09-24T11:48:23.863Z,23.44
2016-09-24T11:49:24.878Z,23.17
2016-09-24T11:50:23.467Z,23.41
2016-09-24T11:51:24.873Z,23.86
2016-09-24T11:52:23.654Z,23.87
2016-09-24T11:53:23.924Z,24.05
2016-09-24T11:54:24.122Z,23.96
2016-09-24T11:55:23.683Z,23.74
2016-09-24T11:56:23.644Z,23.44
2016-09-24T11:57:24.055Z,23.63
2016-09-24T11:58:25.247Z,24.21
2016-09-24T11:59:24.046Z,24.7
2016-09-24T12:00:23.734Z,25.5
2016-09-24T12:01:24.899Z,26.31
2016-09-24T12:02:25.112Z,25.91
2016-09-24T12:03:24.839Z,26.02
2016-09-24T12:04:24.449Z,25.85
2016-09-24T12:05:24.937Z,25.93
2016-09-24T12:06:25.311Z,25.72
2016-09-24T12:07:25.019Z,25.85
2016-09-24T12:08:25.129Z,26.29
2016-09-24T12:09:24.719Z,26.02
2016-09-24T12:10:25.188Z,25.62
2016-09-24T12:11:25.456Z,25.41
2016-09-24T12:12:25.527Z,24.7
2016-09-24T12:13:25.228Z,23.87
2016-09-24T12:14:25.934Z,23.95
2016-09-24T12:15:24.636Z,23.92
2016-09-24T12:16:24.860Z,24.2
2016-09-24T12:17:25.220Z,23.48
2016-09-24T12:18:24.966Z,23.48
2016-09-24T12:19:24.570Z,23.68
2016-09-24T12:20:25.423Z,24.08
2016-09-24T12:21:25.987Z,24.03
2016-09-24T12:22:25.041Z,23.95
2016-09-24T12:23:25.926Z,23.88
2016-09-24T12:24:24.893Z,23.93
2016-09-24T12:25:24.984Z,23.81
2016-09-24T12:26:25.762Z,24.17
2016-09-24T12:27:25.453Z,24.81
2016-09-24T12:28:24.973Z,25.31
2016-09-24T12:29:26.109Z,25.36
2016-09-24T12:30:25.977Z,26.19
2016-09-24T12:31:25.110Z,26.74
2016-09-24T12:32:25.240Z,27.27
2016-09-24T12:33:26.277Z,27.83
2016-09-24T12:34:26.520Z,27.82
2016-09-24T12:35:25.388Z,27.42
2016-09-24T12:36:26.258Z,27.6
2016-09-24T12:37:24.886Z,27.12
2016-09-24T12:38:25.651Z,27.42
2016-09-24T12:39:25.491Z,27.05
2016-09-24T12:40:25.637Z,27.52
2016-09-24T12:41:25.447Z,28.33
2016-09-24T12:42:25.837Z,28
2016-09-24T12:43:25.821Z,27.6
2016-09-24T12:44:25.032Z,27.49
2016-09-24T12:45:26.218Z,27.27
2016-09-24T12:46:26.453Z,26.58
2016-09-24T12:47:25.750Z,26.84
2016-09-24T12:48:26.610Z,26.92
2016-09-24T12:49:26.664Z,26.99
2016-09-24T12:50:26.527Z,26.59
2016-09-24T12:51:26.505Z,27.18
2016-09-24T12:52:25.480Z,26.78
2016-09-24T12:53:26.394Z,26.65
2016-09-24T12:54:26.421Z,26.06
2016-09-24T12:55:26.249Z,26.22
2016-09-24T12:56:27.027Z,25.99
2016-09-24T12:57:26.143Z,26.31
2016-09-24T12:58:25.983Z,25.93
2016-09-24T12:59:26.207Z,25.41
2016-09-24T13:00:26.170Z,25.4